aviador You're here:

VNKT Decoded Metar

KATHMANDU in NEPAL
Report Time2016-02-14 22:50:00
UTC Time2016-02-14 22:59:27
Flight Rules mvfr MVFR
WindCalm
Visibility6000 m
Phenomena:N/A
Clouds:Few 020 Hf
Expected CloudBase > 800 ft AGL from Temp-Dew spread
CeilingNone
Temp04°C (ISA -2)
Dew Point02°C (87% RH)
AAT2.3°C
QNH1021 hPa
Density Alt3,950 ft
Elevation4,386 ft
Report Wrong Elevation
Raw Report
VNKT 142250Z 00000KT 6000 FEW020 04/02 Q1021 NOSIG=

Extra information for VNKT:More info

Metar Taf Metar & Taf Last 4 Metars F.Rules Stats Wind Profile Meteogram Temp Stats Airport Information Weather charts Add Link Nearby VenuesMetar ALERT Operation Metar Decoded Social comments